sensor_id;sensor_type;location;lat;lon;timestamp;P1;durP1;ratioP1;P2;durP2;ratioP2
18526;SDS011;9393;42.158;24.748;2022-10-18T00:01:44;16.13;;;9.00;;
18526;SDS011;9393;42.158;24.748;2022-10-18T00:04:47;16.73;;;8.63;;
18526;SDS011;9393;42.158;24.748;2022-10-18T00:07:51;11.20;;;7.60;;
18526;SDS011;9393;42.158;24.748;2022-10-18T00:10:55;10.23;;;7.03;;
18526;SDS011;9393;42.158;24.748;2022-10-18T00:13:59;13.90;;;7.67;;
18526;SDS011;9393;42.158;24.748;2022-10-18T00:17:03;13.17;;;7.87;;
18526;SDS011;9393;42.158;24.748;2022-10-18T00:20:06;16.10;;;8.27;;
18526;SDS011;9393;42.158;24.748;2022-10-18T00:23:11;15.83;;;8.50;;
18526;SDS011;9393;42.158;24.748;2022-10-18T00:26:18;15.20;;;8.23;;
18526;SDS011;9393;42.158;24.748;2022-10-18T00:29:22;13.17;;;8.73;;
18526;SDS011;9393;42.158;24.748;2022-10-18T00:32:25;13.27;;;8.13;;
18526;SDS011;9393;42.158;24.748;2022-10-18T00:35:29;11.57;;;7.80;;
18526;SDS011;9393;42.158;24.748;2022-10-18T00:38:35;10.33;;;7.97;;
18526;SDS011;9393;42.158;24.748;2022-10-18T00:41:40;11.97;;;7.27;;
18526;SDS011;9393;42.158;24.748;2022-10-18T00:45:04;16.30;;;7.80;;
18526;SDS011;9393;42.158;24.748;2022-10-18T00:48:16;14.63;;;7.53;;
18526;SDS011;9393;42.158;24.748;2022-10-18T00:51:21;12.30;;;8.03;;
18526;SDS011;9393;42.158;24.748;2022-10-18T00:54:29;11.50;;;7.47;;
18526;SDS011;9393;42.158;24.748;2022-10-18T00:57:36;12.43;;;7.40;;
18526;SDS011;9393;42.158;24.748;2022-10-18T01:00:41;12.60;;;7.60;;
18526;SDS011;9393;42.158;24.748;2022-10-18T01:03:44;11.50;;;7.03;;
18526;SDS011;9393;42.158;24.748;2022-10-18T01:06:50;16.27;;;7.13;;
18526;SDS011;9393;42.158;24.748;2022-10-18T01:10:02;14.53;;;7.17;;
18526;SDS011;9393;42.158;24.748;2022-10-18T01:13:16;14.70;;;7.50;;
18526;SDS011;9393;42.158;24.748;2022-10-18T01:16:28;13.53;;;7.40;;
18526;SDS011;9393;42.158;24.748;2022-10-18T01:23:18;11.43;;;7.77;;
18526;SDS011;9393;42.158;24.748;2022-10-18T01:26:34;14.47;;;8.03;;
18526;SDS011;9393;42.158;24.748;2022-10-18T01:29:54;13.90;;;7.33;;
18526;SDS011;9393;42.158;24.748;2022-10-18T01:33:20;11.20;;;7.27;;
18526;SDS011;9393;42.158;24.748;2022-10-18T01:36:29;11.60;;;7.47;;
18526;SDS011;9393;42.158;24.748;2022-10-18T01:39:35;12.20;;;7.27;;
18526;SDS011;9393;42.158;24.748;2022-10-18T01:42:43;9.70;;;7.37;;
18526;SDS011;9393;42.158;24.748;2022-10-18T01:45:48;9.87;;;6.73;;
18526;SDS011;9393;42.158;24.748;2022-10-18T01:48:53;10.97;;;7.47;;
18526;SDS011;9393;42.158;24.748;2022-10-18T01:51:57;15.33;;;8.90;;
18526;SDS011;9393;42.158;24.748;2022-10-18T01:55:01;12.50;;;8.07;;
18526;SDS011;9393;42.158;24.748;2022-10-18T01:58:08;9.80;;;6.67;;
18526;SDS011;9393;42.158;24.748;2022-10-18T02:01:23;9.60;;;6.47;;
18526;SDS011;9393;42.158;24.748;2022-10-18T02:04:36;9.20;;;6.70;;
18526;SDS011;9393;42.158;24.748;2022-10-18T02:07:46;11.97;;;6.30;;
18526;SDS011;9393;42.158;24.748;2022-10-18T02:11:13;11.90;;;6.87;;
18526;SDS011;9393;42.158;24.748;2022-10-18T02:14:18;10.17;;;5.90;;
18526;SDS011;9393;42.158;24.748;2022-10-18T02:17:24;9.13;;;6.30;;
18526;SDS011;9393;42.158;24.748;2022-10-18T02:20:31;10.67;;;7.10;;
18526;SDS011;9393;42.158;24.748;2022-10-18T02:23:37;9.13;;;6.07;;
18526;SDS011;9393;42.158;24.748;2022-10-18T02:26:40;10.93;;;6.90;;
18526;SDS011;9393;42.158;24.748;2022-10-18T02:29:44;14.13;;;6.63;;
18526;SDS011;9393;42.158;24.748;2022-10-18T02:32:49;11.23;;;7.67;;
18526;SDS011;9393;42.158;24.748;2022-10-18T02:36:01;11.43;;;7.37;;
18526;SDS011;9393;42.158;24.748;2022-10-18T02:39:10;8.77;;;6.67;;
18526;SDS011;9393;42.158;24.748;2022-10-18T02:42:15;9.17;;;6.57;;
18526;SDS011;9393;42.158;24.748;2022-10-18T02:45:19;10.13;;;6.97;;
18526;SDS011;9393;42.158;24.748;2022-10-18T02:48:23;10.33;;;7.07;;
18526;SDS011;9393;42.158;24.748;2022-10-18T02:51:27;12.70;;;6.87;;
18526;SDS011;9393;42.158;24.748;2022-10-18T02:54:31;12.27;;;7.37;;
18526;SDS011;9393;42.158;24.748;2022-10-18T02:57:34;13.10;;;7.40;;
18526;SDS011;9393;42.158;24.748;2022-10-18T03:00:37;10.00;;;7.03;;
18526;SDS011;9393;42.158;24.748;2022-10-18T03:03:41;10.23;;;6.73;;
18526;SDS011;9393;42.158;24.748;2022-10-18T03:06:45;12.80;;;6.80;;
18526;SDS011;9393;42.158;24.748;2022-10-18T03:09:48;14.17;;;7.40;;
18526;SDS011;9393;42.158;24.748;2022-10-18T03:12:52;13.03;;;6.83;;
18526;SDS011;9393;42.158;24.748;2022-10-18T03:15:55;11.10;;;7.20;;
18526;SDS011;9393;42.158;24.748;2022-10-18T03:18:58;14.10;;;7.00;;
18526;SDS011;9393;42.158;24.748;2022-10-18T03:22:03;13.20;;;7.30;;
18526;SDS011;9393;42.158;24.748;2022-10-18T03:25:06;11.27;;;7.07;;
18526;SDS011;9393;42.158;24.748;2022-10-18T03:28:10;14.00;;;7.20;;
18526;SDS011;9393;42.158;24.748;2022-10-18T03:31:13;11.63;;;7.47;;
18526;SDS011;9393;42.158;24.748;2022-10-18T03:34:16;12.13;;;7.43;;
18526;SDS011;9393;42.158;24.748;2022-10-18T03:37:21;12.83;;;7.50;;
18526;SDS011;9393;42.158;24.748;2022-10-18T03:40:24;14.73;;;7.13;;
18526;SDS011;9393;42.158;24.748;2022-10-18T03:43:28;12.33;;;7.33;;
18526;SDS011;9393;42.158;24.748;2022-10-18T03:46:31;10.90;;;7.70;;
18526;SDS011;9393;42.158;24.748;2022-10-18T03:49:34;13.53;;;8.10;;
18526;SDS011;9393;42.158;24.748;2022-10-18T03:52:39;13.33;;;7.37;;
18526;SDS011;9393;42.158;24.748;2022-10-18T03:55:42;10.73;;;7.33;;
18526;SDS011;9393;42.158;24.748;2022-10-18T03:58:45;9.57;;;7.00;;
18526;SDS011;9393;42.158;24.748;2022-10-18T04:01:49;10.27;;;7.53;;
18526;SDS011;9393;42.158;24.748;2022-10-18T04:04:52;10.57;;;6.60;;
18526;SDS011;9393;42.158;24.748;2022-10-18T04:07:57;10.03;;;6.80;;
18526;SDS011;9393;42.158;24.748;2022-10-18T04:11:03;11.27;;;6.90;;
18526;SDS011;9393;42.158;24.748;2022-10-18T04:14:08;12.80;;;6.47;;
18526;SDS011;9393;42.158;24.748;2022-10-18T04:17:12;8.80;;;6.50;;
18526;SDS011;9393;42.158;24.748;2022-10-18T04:20:15;8.67;;;6.60;;
18526;SDS011;9393;42.158;24.748;2022-10-18T04:23:20;9.73;;;6.57;;
18526;SDS011;9393;42.158;24.748;2022-10-18T04:26:23;7.97;;;6.47;;
18526;SDS011;9393;42.158;24.748;2022-10-18T04:29:26;10.40;;;6.40;;
18526;SDS011;9393;42.158;24.748;2022-10-18T04:32:30;9.97;;;6.63;;
18526;SDS011;9393;42.158;24.748;2022-10-18T04:35:33;10.07;;;6.47;;
18526;SDS011;9393;42.158;24.748;2022-10-18T04:38:37;10.40;;;6.60;;
18526;SDS011;9393;42.158;24.748;2022-10-18T04:41:41;11.20;;;6.60;;
18526;SDS011;9393;42.158;24.748;2022-10-18T04:44:44;14.37;;;6.80;;
18526;SDS011;9393;42.158;24.748;2022-10-18T04:47:48;14.60;;;6.60;;
18526;SDS011;9393;42.158;24.748;2022-10-18T04:50:51;11.67;;;6.93;;
18526;SDS011;9393;42.158;24.748;2022-10-18T04:53:55;16.33;;;6.83;;
18526;SDS011;9393;42.158;24.748;2022-10-18T04:56:59;11.13;;;7.03;;
18526;SDS011;9393;42.158;24.748;2022-10-18T05:00:02;11.60;;;7.20;;
18526;SDS011;9393;42.158;24.748;2022-10-18T05:03:06;11.47;;;7.40;;
18526;SDS011;9393;42.158;24.748;2022-10-18T05:06:10;9.77;;;7.43;;
18526;SDS011;9393;42.158;24.748;2022-10-18T05:09:15;11.33;;;7.43;;
18526;SDS011;9393;42.158;24.748;2022-10-18T05:12:18;13.20;;;6.83;;
18526;SDS011;9393;42.158;24.748;2022-10-18T05:15:22;11.87;;;6.80;;
18526;SDS011;9393;42.158;24.748;2022-10-18T05:18:25;13.40;;;7.03;;
18526;SDS011;9393;42.158;24.748;2022-10-18T05:21:29;17.67;;;7.80;;
18526;SDS011;9393;42.158;24.748;2022-10-18T05:24:33;14.73;;;7.70;;
18526;SDS011;9393;42.158;24.748;2022-10-18T05:27:37;15.77;;;7.87;;
18526;SDS011;9393;42.158;24.748;2022-10-18T05:30:40;12.20;;;6.93;;
18526;SDS011;9393;42.158;24.748;2022-10-18T05:33:43;13.97;;;7.30;;
18526;SDS011;9393;42.158;24.748;2022-10-18T05:36:46;17.90;;;7.63;;
18526;SDS011;9393;42.158;24.748;2022-10-18T05:39:51;15.93;;;7.60;;
18526;SDS011;9393;42.158;24.748;2022-10-18T05:42:55;12.30;;;6.97;;
18526;SDS011;9393;42.158;24.748;2022-10-18T05:45:58;14.80;;;7.77;;
18526;SDS011;9393;42.158;24.748;2022-10-18T05:49:01;13.37;;;7.27;;
18526;SDS011;9393;42.158;24.748;2022-10-18T05:52:04;11.10;;;7.13;;
18526;SDS011;9393;42.158;24.748;2022-10-18T05:55:09;17.27;;;8.43;;
18526;SDS011;9393;42.158;24.748;2022-10-18T05:58:12;11.97;;;7.97;;
18526;SDS011;9393;42.158;24.748;2022-10-18T06:01:16;14.27;;;8.63;;
18526;SDS011;9393;42.158;24.748;2022-10-18T06:04:19;12.40;;;7.93;;
18526;SDS011;9393;42.158;24.748;2022-10-18T06:07:22;17.40;;;7.53;;
18526;SDS011;9393;42.158;24.748;2022-10-18T06:10:27;12.13;;;8.27;;
18526;SDS011;9393;42.158;24.748;2022-10-18T06:13:30;14.03;;;7.43;;
18526;SDS011;9393;42.158;24.748;2022-10-18T06:16:34;14.47;;;7.93;;
18526;SDS011;9393;42.158;24.748;2022-10-18T06:19:42;15.93;;;8.10;;
18526;SDS011;9393;42.158;24.748;2022-10-18T06:22:45;16.97;;;7.43;;
18526;SDS011;9393;42.158;24.748;2022-10-18T06:25:50;15.13;;;7.93;;
18526;SDS011;9393;42.158;24.748;2022-10-18T06:28:53;16.00;;;8.20;;
18526;SDS011;9393;42.158;24.748;2022-10-18T06:31:57;18.73;;;8.93;;
18526;SDS011;9393;42.158;24.748;2022-10-18T06:35:00;15.63;;;8.30;;
18526;SDS011;9393;42.158;24.748;2022-10-18T06:38:03;21.33;;;8.37;;
18526;SDS011;9393;42.158;24.748;2022-10-18T06:41:09;16.33;;;8.83;;
18526;SDS011;9393;42.158;24.748;2022-10-18T06:44:12;16.17;;;8.73;;
18526;SDS011;9393;42.158;24.748;2022-10-18T06:47:15;18.77;;;8.60;;
18526;SDS011;9393;42.158;24.748;2022-10-18T06:50:19;17.40;;;9.43;;
18526;SDS011;9393;42.158;24.748;2022-10-18T06:53:22;17.27;;;8.73;;
18526;SDS011;9393;42.158;24.748;2022-10-18T06:56:27;16.73;;;8.40;;
18526;SDS011;9393;42.158;24.748;2022-10-18T06:59:30;18.13;;;8.53;;
18526;SDS011;9393;42.158;24.748;2022-10-18T07:02:33;13.43;;;7.13;;
18526;SDS011;9393;42.158;24.748;2022-10-18T07:05:37;8.77;;;6.00;;
18526;SDS011;9393;42.158;24.748;2022-10-18T07:08:41;9.73;;;6.93;;
18526;SDS011;9393;42.158;24.748;2022-10-18T07:11:46;11.90;;;6.60;;
18526;SDS011;9393;42.158;24.748;2022-10-18T07:14:50;10.03;;;6.90;;
18526;SDS011;9393;42.158;24.748;2022-10-18T07:17:53;11.73;;;7.00;;
18526;SDS011;9393;42.158;24.748;2022-10-18T07:20:56;10.80;;;7.87;;
18526;SDS011;9393;42.158;24.748;2022-10-18T07:23:59;18.37;;;7.70;;
18526;SDS011;9393;42.158;24.748;2022-10-18T07:27:04;16.00;;;8.27;;
18526;SDS011;9393;42.158;24.748;2022-10-18T07:30:08;14.93;;;8.67;;
18526;SDS011;9393;42.158;24.748;2022-10-18T07:33:12;14.30;;;8.60;;
18526;SDS011;9393;42.158;24.748;2022-10-18T07:36:15;12.17;;;8.30;;
18526;SDS011;9393;42.158;24.748;2022-10-18T07:39:21;13.77;;;8.40;;
18526;SDS011;9393;42.158;24.748;2022-10-18T07:42:26;16.80;;;8.50;;
18526;SDS011;9393;42.158;24.748;2022-10-18T07:45:29;20.67;;;8.40;;
18526;SDS011;9393;42.158;24.748;2022-10-18T07:48:33;16.13;;;7.53;;
18526;SDS011;9393;42.158;24.748;2022-10-18T07:51:36;13.83;;;8.33;;
18526;SDS011;9393;42.158;24.748;2022-10-18T07:54:40;14.10;;;8.80;;
18526;SDS011;9393;42.158;24.748;2022-10-18T07:57:44;11.00;;;7.60;;
18526;SDS011;9393;42.158;24.748;2022-10-18T08:00:48;14.77;;;6.93;;
18526;SDS011;9393;42.158;24.748;2022-10-18T08:03:51;11.80;;;7.37;;
18526;SDS011;9393;42.158;24.748;2022-10-18T08:06:54;13.23;;;7.07;;
18526;SDS011;9393;42.158;24.748;2022-10-18T08:09:58;12.23;;;7.57;;
18526;SDS011;9393;42.158;24.748;2022-10-18T08:13:02;12.83;;;6.90;;
18526;SDS011;9393;42.158;24.748;2022-10-18T08:16:07;12.23;;;6.37;;
18526;SDS011;9393;42.158;24.748;2022-10-18T08:19:11;14.30;;;6.23;;
18526;SDS011;9393;42.158;24.748;2022-10-18T08:22:14;17.03;;;6.20;;
18526;SDS011;9393;42.158;24.748;2022-10-18T08:25:17;13.37;;;6.50;;
18526;SDS011;9393;42.158;24.748;2022-10-18T08:28:22;17.77;;;6.57;;
18526;SDS011;9393;42.158;24.748;2022-10-18T08:31:25;11.20;;;6.10;;
18526;SDS011;9393;42.158;24.748;2022-10-18T08:34:29;10.30;;;5.97;;
18526;SDS011;9393;42.158;24.748;2022-10-18T08:37:32;9.57;;;6.53;;
18526;SDS011;9393;42.158;24.748;2022-10-18T08:40:40;13.93;;;6.53;;
18526;SDS011;9393;42.158;24.748;2022-10-18T08:43:48;14.27;;;6.33;;
18526;SDS011;9393;42.158;24.748;2022-10-18T08:46:58;15.27;;;6.27;;
18526;SDS011;9393;42.158;24.748;2022-10-18T08:50:06;9.73;;;5.70;;
18526;SDS011;9393;42.158;24.748;2022-10-18T08:53:16;8.83;;;5.53;;
18526;SDS011;9393;42.158;24.748;2022-10-18T08:56:25;11.07;;;5.80;;
18526;SDS011;9393;42.158;24.748;2022-10-18T08:59:33;11.97;;;5.80;;
18526;SDS011;9393;42.158;24.748;2022-10-18T09:02:42;7.63;;;5.90;;
18526;SDS011;9393;42.158;24.748;2022-10-18T09:06:00;17.73;;;6.80;;
18526;SDS011;9393;42.158;24.748;2022-10-18T09:09:27;11.83;;;6.10;;
18526;SDS011;9393;42.158;24.748;2022-10-18T09:12:41;9.57;;;6.07;;
18526;SDS011;9393;42.158;24.748;2022-10-18T09:15:58;11.20;;;5.37;;
18526;SDS011;9393;42.158;24.748;2022-10-18T09:19:04;10.38;;;5.70;;
18526;SDS011;9393;42.158;24.748;2022-10-18T09:22:17;9.73;;;5.70;;
18526;SDS011;9393;42.158;24.748;2022-10-18T09:25:22;9.40;;;5.93;;
18526;SDS011;9393;42.158;24.748;2022-10-18T09:28:34;10.03;;;5.80;;
18526;SDS011;9393;42.158;24.748;2022-10-18T09:31:59;11.82;;;5.57;;
18526;SDS011;9393;42.158;24.748;2022-10-18T09:35:14;10.70;;;6.03;;
18526;SDS011;9393;42.158;24.748;2022-10-18T09:38:27;11.23;;;5.60;;
18526;SDS011;9393;42.158;24.748;2022-10-18T09:41:33;11.07;;;6.10;;
18526;SDS011;9393;42.158;24.748;2022-10-18T09:44:43;13.48;;;5.88;;
18526;SDS011;9393;42.158;24.748;2022-10-18T09:47:53;10.90;;;5.93;;
18526;SDS011;9393;42.158;24.748;2022-10-18T09:51:04;8.93;;;5.80;;
18526;SDS011;9393;42.158;24.748;2022-10-18T09:54:15;9.33;;;6.50;;
18526;SDS011;9393;42.158;24.748;2022-10-18T09:57:24;8.40;;;5.60;;
18526;SDS011;9393;42.158;24.748;2022-10-18T10:00:33;8.65;;;5.63;;
18526;SDS011;9393;42.158;24.748;2022-10-18T10:03:41;10.53;;;6.23;;
18526;SDS011;9393;42.158;24.748;2022-10-18T10:06:48;14.40;;;5.90;;
18526;SDS011;9393;42.158;24.748;2022-10-18T10:09:54;11.37;;;5.83;;
18526;SDS011;9393;42.158;24.748;2022-10-18T10:13:03;7.47;;;5.18;;
18526;SDS011;9393;42.158;24.748;2022-10-18T10:16:08;10.13;;;5.25;;
18526;SDS011;9393;42.158;24.748;2022-10-18T10:19:20;14.55;;;5.68;;
18526;SDS011;9393;42.158;24.748;2022-10-18T10:22:26;9.43;;;5.95;;
18526;SDS011;9393;42.158;24.748;2022-10-18T10:25:37;8.65;;;5.40;;
18526;SDS011;9393;42.158;24.748;2022-10-18T10:28:45;10.68;;;5.78;;
18526;SDS011;9393;42.158;24.748;2022-10-18T10:31:49;10.40;;;6.07;;
18526;SDS011;9393;42.158;24.748;2022-10-18T10:35:09;11.10;;;5.30;;
18526;SDS011;9393;42.158;24.748;2022-10-18T10:38:43;12.27;;;5.78;;
18526;SDS011;9393;42.158;24.748;2022-10-18T10:41:46;11.50;;;5.97;;
18526;SDS011;9393;42.158;24.748;2022-10-18T10:44:52;17.65;;;5.75;;
18526;SDS011;9393;42.158;24.748;2022-10-18T10:48:01;8.07;;;5.63;;
18526;SDS011;9393;42.158;24.748;2022-10-18T10:51:26;9.15;;;5.68;;
18526;SDS011;9393;42.158;24.748;2022-10-18T10:54:39;11.75;;;5.97;;
18526;SDS011;9393;42.158;24.748;2022-10-18T10:57:52;12.02;;;5.53;;
18526;SDS011;9393;42.158;24.748;2022-10-18T11:00:57;9.07;;;5.40;;
18526;SDS011;9393;42.158;24.748;2022-10-18T11:04:24;9.85;;;6.82;;
18526;SDS011;9393;42.158;24.748;2022-10-18T11:07:31;14.25;;;6.05;;
18526;SDS011;9393;42.158;24.748;2022-10-18T11:10:38;8.02;;;5.28;;
18526;SDS011;9393;42.158;24.748;2022-10-18T11:13:55;6.47;;;4.93;;
18526;SDS011;9393;42.158;24.748;2022-10-18T11:17:23;5.72;;;4.18;;
18526;SDS011;9393;42.158;24.748;2022-10-18T11:20:35;6.75;;;4.85;;
18526;SDS011;9393;42.158;24.748;2022-10-18T11:23:43;8.27;;;5.22;;
18526;SDS011;9393;42.158;24.748;2022-10-18T11:26:48;9.80;;;4.30;;
18526;SDS011;9393;42.158;24.748;2022-10-18T11:30:00;11.75;;;4.57;;
18526;SDS011;9393;42.158;24.748;2022-10-18T11:33:20;8.13;;;4.32;;
18526;SDS011;9393;42.158;24.748;2022-10-18T11:36:52;5.63;;;4.22;;
18526;SDS011;9393;42.158;24.748;2022-10-18T11:40:30;7.03;;;3.80;;
18526;SDS011;9393;42.158;24.748;2022-10-18T11:43:46;7.25;;;4.15;;
18526;SDS011;9393;42.158;24.748;2022-10-18T11:47:06;7.15;;;2.88;;
18526;SDS011;9393;42.158;24.748;2022-10-18T11:50:18;7.75;;;3.40;;
18526;SDS011;9393;42.158;24.748;2022-10-18T11:53:32;7.45;;;3.78;;
18526;SDS011;9393;42.158;24.748;2022-10-18T11:56:43;5.43;;;3.97;;
18526;SDS011;9393;42.158;24.748;2022-10-18T11:59:55;4.05;;;2.45;;
18526;SDS011;9393;42.158;24.748;2022-10-18T12:03:21;5.43;;;2.72;;
18526;SDS011;9393;42.158;24.748;2022-10-18T12:06:35;5.28;;;3.15;;
18526;SDS011;9393;42.158;24.748;2022-10-18T12:09:40;4.40;;;3.15;;
18526;SDS011;9393;42.158;24.748;2022-10-18T12:12:51;6.90;;;3.20;;
18526;SDS011;9393;42.158;24.748;2022-10-18T12:15:58;8.45;;;3.33;;
18526;SDS011;9393;42.158;24.748;2022-10-18T12:19:06;5.70;;;3.17;;
18526;SDS011;9393;42.158;24.748;2022-10-18T12:22:27;5.38;;;2.80;;
18526;SDS011;9393;42.158;24.748;2022-10-18T12:25:36;5.93;;;2.70;;
18526;SDS011;9393;42.158;24.748;2022-10-18T12:28:46;7.38;;;3.15;;
18526;SDS011;9393;42.158;24.748;2022-10-18T12:31:57;6.63;;;3.20;;
18526;SDS011;9393;42.158;24.748;2022-10-18T12:35:03;3.70;;;2.88;;
18526;SDS011;9393;42.158;24.748;2022-10-18T12:38:16;6.20;;;3.50;;
18526;SDS011;9393;42.158;24.748;2022-10-18T12:41:24;7.88;;;3.45;;
18526;SDS011;9393;42.158;24.748;2022-10-18T12:44:31;9.43;;;3.30;;
18526;SDS011;9393;42.158;24.748;2022-10-18T12:47:35;8.95;;;3.10;;
18526;SDS011;9393;42.158;24.748;2022-10-18T12:50:39;7.78;;;3.58;;
18526;SDS011;9393;42.158;24.748;2022-10-18T12:53:45;5.35;;;3.25;;
18526;SDS011;9393;42.158;24.748;2022-10-18T12:56:51;10.30;;;3.78;;
18526;SDS011;9393;42.158;24.748;2022-10-18T12:59:55;10.82;;;3.67;;
18526;SDS011;9393;42.158;24.748;2022-10-18T13:10:31;5.93;;;3.67;;
18526;SDS011;9393;42.158;24.748;2022-10-18T13:13:38;13.73;;;4.25;;
18526;SDS011;9393;42.158;24.748;2022-10-18T13:16:57;10.23;;;3.60;;
18526;SDS011;9393;42.158;24.748;2022-10-18T13:20:10;10.02;;;3.63;;
18526;SDS011;9393;42.158;24.748;2022-10-18T13:23:35;8.45;;;4.00;;
18526;SDS011;9393;42.158;24.748;2022-10-18T13:26:47;6.07;;;3.30;;
18526;SDS011;9393;42.158;24.748;2022-10-18T13:30:29;6.25;;;4.53;;
18526;SDS011;9393;42.158;24.748;2022-10-18T13:33:42;10.50;;;4.50;;
18526;SDS011;9393;42.158;24.748;2022-10-18T13:36:53;10.02;;;3.85;;
18526;SDS011;9393;42.158;24.748;2022-10-18T13:40:14;10.77;;;3.92;;
18526;SDS011;9393;42.158;24.748;2022-10-18T13:47:11;14.88;;;4.20;;
18526;SDS011;9393;42.158;24.748;2022-10-18T13:53:47;8.43;;;3.15;;
18526;SDS011;9393;42.158;24.748;2022-10-18T13:57:04;6.03;;;3.38;;
18526;SDS011;9393;42.158;24.748;2022-10-18T14:00:32;7.13;;;3.08;;
18526;SDS011;9393;42.158;24.748;2022-10-18T14:03:56;8.60;;;3.75;;
18526;SDS011;9393;42.158;24.748;2022-10-18T14:07:22;6.88;;;3.65;;
18526;SDS011;9393;42.158;24.748;2022-10-18T14:10:31;7.68;;;4.40;;
18526;SDS011;9393;42.158;24.748;2022-10-18T14:14:03;10.48;;;4.20;;
18526;SDS011;9393;42.158;24.748;2022-10-18T14:17:15;7.05;;;4.78;;
18526;SDS011;9393;42.158;24.748;2022-10-18T14:20:28;11.32;;;5.10;;
18526;SDS011;9393;42.158;24.748;2022-10-18T14:23:51;9.35;;;5.20;;
18526;SDS011;9393;42.158;24.748;2022-10-18T14:27:11;9.15;;;5.60;;
18526;SDS011;9393;42.158;24.748;2022-10-18T14:30:18;12.73;;;7.03;;
18526;SDS011;9393;42.158;24.748;2022-10-18T14:33:23;12.65;;;8.05;;
18526;SDS011;9393;42.158;24.748;2022-10-18T14:36:29;16.60;;;8.75;;
18526;SDS011;9393;42.158;24.748;2022-10-18T14:39:40;15.95;;;8.23;;
18526;SDS011;9393;42.158;24.748;2022-10-18T14:42:46;13.50;;;8.15;;
18526;SDS011;9393;42.158;24.748;2022-10-18T14:45:50;15.07;;;8.13;;
18526;SDS011;9393;42.158;24.748;2022-10-18T14:48:54;13.65;;;8.00;;
18526;SDS011;9393;42.158;24.748;2022-10-18T14:52:00;13.80;;;8.55;;
18526;SDS011;9393;42.158;24.748;2022-10-18T14:55:11;20.50;;;9.23;;
18526;SDS011;9393;42.158;24.748;2022-10-18T14:58:20;19.13;;;9.67;;
18526;SDS011;9393;42.158;24.748;2022-10-18T15:01:26;15.77;;;11.30;;
18526;SDS011;9393;42.158;24.748;2022-10-18T15:04:32;19.30;;;11.13;;
18526;SDS011;9393;42.158;24.748;2022-10-18T15:07:36;14.70;;;10.50;;
18526;SDS011;9393;42.158;24.748;2022-10-18T15:10:42;21.88;;;11.32;;
18526;SDS011;9393;42.158;24.748;2022-10-18T15:13:47;23.87;;;10.87;;
18526;SDS011;9393;42.158;24.748;2022-10-18T15:16:58;16.73;;;10.23;;
18526;SDS011;9393;42.158;24.748;2022-10-18T15:20:17;16.60;;;10.13;;
18526;SDS011;9393;42.158;24.748;2022-10-18T15:23:23;17.13;;;10.03;;
18526;SDS011;9393;42.158;24.748;2022-10-18T15:26:34;30.10;;;18.83;;
18526;SDS011;9393;42.158;24.748;2022-10-18T15:29:47;19.43;;;12.23;;
18526;SDS011;9393;42.158;24.748;2022-10-18T15:32:52;16.17;;;9.97;;
18526;SDS011;9393;42.158;24.748;2022-10-18T15:36:06;20.43;;;9.60;;
18526;SDS011;9393;42.158;24.748;2022-10-18T15:39:15;14.13;;;8.57;;
18526;SDS011;9393;42.158;24.748;2022-10-18T15:42:37;25.97;;;9.90;;
18526;SDS011;9393;42.158;24.748;2022-10-18T15:45:44;19.50;;;10.17;;
18526;SDS011;9393;42.158;24.748;2022-10-18T15:48:54;22.03;;;10.73;;
18526;SDS011;9393;42.158;24.748;2022-10-18T15:52:28;25.63;;;10.83;;
18526;SDS011;9393;42.158;24.748;2022-10-18T15:59:00;25.33;;;11.60;;
18526;SDS011;9393;42.158;24.748;2022-10-18T16:02:07;26.33;;;11.90;;
18526;SDS011;9393;42.158;24.748;2022-10-18T16:05:14;26.40;;;12.93;;
18526;SDS011;9393;42.158;24.748;2022-10-18T16:08:19;28.07;;;13.73;;
18526;SDS011;9393;42.158;24.748;2022-10-18T16:11:24;24.33;;;12.27;;
18526;SDS011;9393;42.158;24.748;2022-10-18T16:14:30;22.93;;;12.60;;
18526;SDS011;9393;42.158;24.748;2022-10-18T16:17:33;25.83;;;12.37;;
18526;SDS011;9393;42.158;24.748;2022-10-18T16:20:39;28.37;;;13.17;;
18526;SDS011;9393;42.158;24.748;2022-10-18T16:23:43;26.20;;;13.00;;
18526;SDS011;9393;42.158;24.748;2022-10-18T16:26:58;24.70;;;11.70;;
18526;SDS011;9393;42.158;24.748;2022-10-18T16:30:08;33.63;;;13.47;;
18526;SDS011;9393;42.158;24.748;2022-10-18T16:33:13;25.00;;;12.53;;
18526;SDS011;9393;42.158;24.748;2022-10-18T16:36:22;29.13;;;14.80;;
18526;SDS011;9393;42.158;24.748;2022-10-18T16:39:27;28.87;;;16.70;;
18526;SDS011;9393;42.158;24.748;2022-10-18T16:42:35;28.80;;;15.43;;
18526;SDS011;9393;42.158;24.748;2022-10-18T16:45:40;31.80;;;15.00;;
18526;SDS011;9393;42.158;24.748;2022-10-18T16:48:43;35.00;;;16.13;;
18526;SDS011;9393;42.158;24.748;2022-10-18T16:51:47;36.70;;;17.87;;
18526;SDS011;9393;42.158;24.748;2022-10-18T16:54:51;40.37;;;18.50;;
18526;SDS011;9393;42.158;24.748;2022-10-18T16:57:54;45.20;;;21.17;;
18526;SDS011;9393;42.158;24.748;2022-10-18T17:00:59;43.10;;;20.33;;
18526;SDS011;9393;42.158;24.748;2022-10-18T17:04:07;39.83;;;20.73;;
18526;SDS011;9393;42.158;24.748;2022-10-18T17:07:10;38.03;;;19.47;;
18526;SDS011;9393;42.158;24.748;2022-10-18T17:10:24;60.47;;;30.73;;
18526;SDS011;9393;42.158;24.748;2022-10-18T17:13:28;59.77;;;37.77;;
18526;SDS011;9393;42.158;24.748;2022-10-18T17:16:33;70.13;;;51.47;;
18526;SDS011;9393;42.158;24.748;2022-10-18T17:19:39;72.63;;;44.80;;
18526;SDS011;9393;42.158;24.748;2022-10-18T17:22:43;71.90;;;43.43;;
18526;SDS011;9393;42.158;24.748;2022-10-18T17:25:46;68.63;;;40.60;;
18526;SDS011;9393;42.158;24.748;2022-10-18T17:29:09;56.33;;;36.03;;
18526;SDS011;9393;42.158;24.748;2022-10-18T17:32:14;57.43;;;35.33;;
18526;SDS011;9393;42.158;24.748;2022-10-18T17:35:17;64.17;;;40.07;;
18526;SDS011;9393;42.158;24.748;2022-10-18T17:38:20;55.23;;;33.90;;
18526;SDS011;9393;42.158;24.748;2022-10-18T17:41:24;58.87;;;33.67;;
18526;SDS011;9393;42.158;24.748;2022-10-18T17:44:27;54.60;;;29.20;;
18526;SDS011;9393;42.158;24.748;2022-10-18T17:47:32;55.07;;;28.00;;
18526;SDS011;9393;42.158;24.748;2022-10-18T17:50:38;44.70;;;23.07;;
18526;SDS011;9393;42.158;24.748;2022-10-18T17:53:41;41.13;;;21.37;;
18526;SDS011;9393;42.158;24.748;2022-10-18T17:56:45;42.07;;;20.37;;
18526;SDS011;9393;42.158;24.748;2022-10-18T17:59:54;34.80;;;18.70;;
18526;SDS011;9393;42.158;24.748;2022-10-18T18:03:00;32.93;;;16.53;;
18526;SDS011;9393;42.158;24.748;2022-10-18T18:06:11;34.33;;;16.37;;
18526;SDS011;9393;42.158;24.748;2022-10-18T18:09:16;26.50;;;13.90;;
18526;SDS011;9393;42.158;24.748;2022-10-18T18:12:19;25.10;;;12.43;;
18526;SDS011;9393;42.158;24.748;2022-10-18T18:15:23;26.13;;;11.37;;
18526;SDS011;9393;42.158;24.748;2022-10-18T18:18:27;23.77;;;9.97;;
18526;SDS011;9393;42.158;24.748;2022-10-18T18:21:31;16.37;;;8.73;;
18526;SDS011;9393;42.158;24.748;2022-10-18T18:24:35;17.57;;;9.37;;
18526;SDS011;9393;42.158;24.748;2022-10-18T18:27:38;22.43;;;10.13;;
18526;SDS011;9393;42.158;24.748;2022-10-18T18:30:41;17.30;;;9.37;;
18526;SDS011;9393;42.158;24.748;2022-10-18T18:33:46;21.20;;;10.10;;
18526;SDS011;9393;42.158;24.748;2022-10-18T18:36:49;19.47;;;10.33;;
18526;SDS011;9393;42.158;24.748;2022-10-18T18:39:53;22.17;;;10.63;;
18526;SDS011;9393;42.158;24.748;2022-10-18T18:42:56;23.83;;;11.30;;
18526;SDS011;9393;42.158;24.748;2022-10-18T18:46:19;26.90;;;12.93;;
18526;SDS011;9393;42.158;24.748;2022-10-18T18:49:24;27.13;;;14.33;;
18526;SDS011;9393;42.158;24.748;2022-10-18T18:52:28;29.13;;;15.00;;
18526;SDS011;9393;42.158;24.748;2022-10-18T18:55:32;25.23;;;13.90;;
18526;SDS011;9393;42.158;24.748;2022-10-18T18:58:40;30.00;;;15.10;;